Terminal Aerodrome Forecast
Issued by NWS

Home | Current Version | Previous Version | Text Only | Print | Product List | Glossary On
Versions: 1 2 3 4 5 6 7 8 9 10 11 12 13 14 15 16 17 18 19 20 21 22 23
000
FTUS46 KLOX 051730
TAFSBP
TAF
KSBP 051730Z 0518/0618 VRB03KT P6SM SCT015
     FM052000 30012KT P6SM SKC
     FM060300 32007KT P6SM SKC
     FM060500 VRB03KT P6SM OVC012
     FM060900 VRB03KT P6SM OVC008
     FM061600 VRB03KT P6SM BKN012=

USA.gov is the U.S. government's official web portal to all federal, state and local government web resources and services.